sensor_id;sensor_type;location;lat;lon;timestamp;temperature;humidity
79467;SHT30;68933;49.726;9.226;2023-05-07T00:01:06;16;67
79467;SHT30;68933;49.726;9.226;2023-05-07T00:03:19;16;67
79467;SHT30;68933;49.726;9.226;2023-05-07T00:05:32;16;67
79467;SHT30;68933;49.726;9.226;2023-05-07T00:07:46;16;67
79467;SHT30;68933;49.726;9.226;2023-05-07T00:09:58;16;67
79467;SHT30;68933;49.726;9.226;2023-05-07T00:12:11;16;67
79467;SHT30;68933;49.726;9.226;2023-05-07T00:14:24;16;67
79467;SHT30;68933;49.726;9.226;2023-05-07T00:16:37;15.9;67
79467;SHT30;68933;49.726;9.226;2023-05-07T00:18:50;15.9;67
79467;SHT30;68933;49.726;9.226;2023-05-07T00:21:03;15.9;67
79467;SHT30;68933;49.726;9.226;2023-05-07T00:23:16;15.9;67
79467;SHT30;68933;49.726;9.226;2023-05-07T00:25:29;15.8;67
79467;SHT30;68933;49.726;9.226;2023-05-07T00:27:42;15.8;67
79467;SHT30;68933;49.726;9.226;2023-05-07T00:29:55;15.8;67
79467;SHT30;68933;49.726;9.226;2023-05-07T00:32:08;15.8;69
79467;SHT30;68933;49.726;9.226;2023-05-07T00:34:21;15.8;69
79467;SHT30;68933;49.726;9.226;2023-05-07T00:36:34;15.7;69
79467;SHT30;68933;49.726;9.226;2023-05-07T00:38:47;15.7;69
79467;SHT30;68933;49.726;9.226;2023-05-07T00:41:00;15.7;69
79467;SHT30;68933;49.726;9.226;2023-05-07T00:43:13;15.6;69
79467;SHT30;68933;49.726;9.226;2023-05-07T00:45:26;15.6;69
79467;SHT30;68933;49.726;9.226;2023-05-07T00:47:39;15.4;69
79467;SHT30;68933;49.726;9.226;2023-05-07T00:49:52;15.4;69
79467;SHT30;68933;49.726;9.226;2023-05-07T00:52:05;15.4;69
79467;SHT30;68933;49.726;9.226;2023-05-07T00:54:18;15.3;70
79467;SHT30;68933;49.726;9.226;2023-05-07T00:56:31;15.3;70
79467;SHT30;68933;49.726;9.226;2023-05-07T00:58:44;15.3;69
79467;SHT30;68933;49.726;9.226;2023-05-07T01:00:57;15.3;69
79467;SHT30;68933;49.726;9.226;2023-05-07T01:03:10;15.2;70
79467;SHT30;68933;49.726;9.226;2023-05-07T01:05:23;15.2;70
79467;SHT30;68933;49.726;9.226;2023-05-07T01:07:36;15.2;70
79467;SHT30;68933;49.726;9.226;2023-05-07T01:09:49;15.2;70
79467;SHT30;68933;49.726;9.226;2023-05-07T01:12:02;15.2;70
79467;SHT30;68933;49.726;9.226;2023-05-07T01:14:15;15.1;70
79467;SHT30;68933;49.726;9.226;2023-05-07T01:16:28;15.1;70
79467;SHT30;68933;49.726;9.226;2023-05-07T01:18:41;15.1;70
79467;SHT30;68933;49.726;9.226;2023-05-07T01:20:54;15.1;70
79467;SHT30;68933;49.726;9.226;2023-05-07T01:23:07;15.1;70
79467;SHT30;68933;49.726;9.226;2023-05-07T01:25:20;15.1;70
79467;SHT30;68933;49.726;9.226;2023-05-07T01:27:33;15;70
79467;SHT30;68933;49.726;9.226;2023-05-07T01:29:46;15;70
79467;SHT30;68933;49.726;9.226;2023-05-07T01:32:00;15;70
79467;SHT30;68933;49.726;9.226;2023-05-07T01:34:12;14.9;70
79467;SHT30;68933;49.726;9.226;2023-05-07T01:36:25;14.9;70
79467;SHT30;68933;49.726;9.226;2023-05-07T01:38:38;14.9;70
79467;SHT30;68933;49.726;9.226;2023-05-07T01:40:51;14.9;70
79467;SHT30;68933;49.726;9.226;2023-05-07T01:43:04;14.9;70
79467;SHT30;68933;49.726;9.226;2023-05-07T01:45:17;14.9;70
79467;SHT30;68933;49.726;9.226;2023-05-07T01:47:30;14.9;70
79467;SHT30;68933;49.726;9.226;2023-05-07T01:49:43;14.9;70
79467;SHT30;68933;49.726;9.226;2023-05-07T01:51:56;14.9;70
79467;SHT30;68933;49.726;9.226;2023-05-07T01:54:09;14.9;70
79467;SHT30;68933;49.726;9.226;2023-05-07T01:56:22;14.9;70
79467;SHT30;68933;49.726;9.226;2023-05-07T01:58:35;14.9;70
79467;SHT30;68933;49.726;9.226;2023-05-07T02:00:48;14.9;70
79467;SHT30;68933;49.726;9.226;2023-05-07T02:03:01;14.8;70
79467;SHT30;68933;49.726;9.226;2023-05-07T02:05:14;14.8;70
79467;SHT30;68933;49.726;9.226;2023-05-07T02:07:27;14.8;72
79467;SHT30;68933;49.726;9.226;2023-05-07T02:09:40;14.8;72
79467;SHT30;68933;49.726;9.226;2023-05-07T02:11:53;14.7;72
79467;SHT30;68933;49.726;9.226;2023-05-07T02:14:06;14.7;72
79467;SHT30;68933;49.726;9.226;2023-05-07T02:16:19;14.7;72
79467;SHT30;68933;49.726;9.226;2023-05-07T02:18:32;14.7;72
79467;SHT30;68933;49.726;9.226;2023-05-07T02:20:45;14.7;72
79467;SHT30;68933;49.726;9.226;2023-05-07T02:22:58;14.7;72
79467;SHT30;68933;49.726;9.226;2023-05-07T02:25:11;14.7;72
79467;SHT30;68933;49.726;9.226;2023-05-07T02:27:24;14.6;72
79467;SHT30;68933;49.726;9.226;2023-05-07T02:29:37;14.6;72
79467;SHT30;68933;49.726;9.226;2023-05-07T02:31:50;14.6;72
79467;SHT30;68933;49.726;9.226;2023-05-07T02:34:03;14.6;72
79467;SHT30;68933;49.726;9.226;2023-05-07T02:36:16;14.6;72
79467;SHT30;68933;49.726;9.226;2023-05-07T02:38:29;14.5;72
79467;SHT30;68933;49.726;9.226;2023-05-07T02:40:42;14.5;72
79467;SHT30;68933;49.726;9.226;2023-05-07T02:42:55;14.5;72
79467;SHT30;68933;49.726;9.226;2023-05-07T02:45:09;14.4;73
79467;SHT30;68933;49.726;9.226;2023-05-07T02:47:21;14.4;73
79467;SHT30;68933;49.726;9.226;2023-05-07T02:49:34;14.4;73
79467;SHT30;68933;49.726;9.226;2023-05-07T02:51:47;14.4;73
79467;SHT30;68933;49.726;9.226;2023-05-07T02:54:00;14.3;73
79467;SHT30;68933;49.726;9.226;2023-05-07T02:56:13;14.3;73
79467;SHT30;68933;49.726;9.226;2023-05-07T02:58:26;14.3;73
79467;SHT30;68933;49.726;9.226;2023-05-07T03:00:39;14.3;73
79467;SHT30;68933;49.726;9.226;2023-05-07T03:02:52;14.3;73
79467;SHT30;68933;49.726;9.226;2023-05-07T03:05:05;14.3;73
79467;SHT30;68933;49.726;9.226;2023-05-07T03:07:18;14.3;73
79467;SHT30;68933;49.726;9.226;2023-05-07T03:09:31;14.2;73
79467;SHT30;68933;49.726;9.226;2023-05-07T03:11:44;14.2;73
79467;SHT30;68933;49.726;9.226;2023-05-07T03:13:57;14.2;73
79467;SHT30;68933;49.726;9.226;2023-05-07T03:16:10;14.1;73
79467;SHT30;68933;49.726;9.226;2023-05-07T03:18:23;14.1;73
79467;SHT30;68933;49.726;9.226;2023-05-07T03:20:36;14;73
79467;SHT30;68933;49.726;9.226;2023-05-07T03:22:49;14;73
79467;SHT30;68933;49.726;9.226;2023-05-07T03:25:02;14;73
79467;SHT30;68933;49.726;9.226;2023-05-07T03:27:15;14;73
79467;SHT30;68933;49.726;9.226;2023-05-07T03:29:28;14;73
79467;SHT30;68933;49.726;9.226;2023-05-07T03:31:41;13.9;73
79467;SHT30;68933;49.726;9.226;2023-05-07T03:33:55;13.9;73
79467;SHT30;68933;49.726;9.226;2023-05-07T03:36:07;13.9;74
79467;SHT30;68933;49.726;9.226;2023-05-07T03:38:20;13.9;74
79467;SHT30;68933;49.726;9.226;2023-05-07T03:40:33;13.9;74
79467;SHT30;68933;49.726;9.226;2023-05-07T03:42:46;13.8;74
79467;SHT30;68933;49.726;9.226;2023-05-07T03:44:59;13.8;74
79467;SHT30;68933;49.726;9.226;2023-05-07T03:47:12;13.8;74
79467;SHT30;68933;49.726;9.226;2023-05-07T03:49:25;13.8;74
79467;SHT30;68933;49.726;9.226;2023-05-07T03:51:38;13.8;74
79467;SHT30;68933;49.726;9.226;2023-05-07T03:53:51;13.8;74
79467;SHT30;68933;49.726;9.226;2023-05-07T03:56:04;13.8;74
79467;SHT30;68933;49.726;9.226;2023-05-07T03:58:17;13.7;74
79467;SHT30;68933;49.726;9.226;2023-05-07T04:00:30;13.7;74
79467;SHT30;68933;49.726;9.226;2023-05-07T04:02:43;13.7;74
79467;SHT30;68933;49.726;9.226;2023-05-07T04:04:56;13.7;74
79467;SHT30;68933;49.726;9.226;2023-05-07T04:07:09;13.7;74
79467;SHT30;68933;49.726;9.226;2023-05-07T04:09:22;13.7;74
79467;SHT30;68933;49.726;9.226;2023-05-07T04:11:35;13.7;74
79467;SHT30;68933;49.726;9.226;2023-05-07T04:13:48;13.7;74
79467;SHT30;68933;49.726;9.226;2023-05-07T04:16:01;13.7;74
79467;SHT30;68933;49.726;9.226;2023-05-07T04:18:14;13.7;74
79467;SHT30;68933;49.726;9.226;2023-05-07T04:20:27;13.7;74
79467;SHT30;68933;49.726;9.226;2023-05-07T04:22:40;13.7;74
79467;SHT30;68933;49.726;9.226;2023-05-07T04:24:53;13.7;74
79467;SHT30;68933;49.726;9.226;2023-05-07T04:27:06;13.7;74
79467;SHT30;68933;49.726;9.226;2023-05-07T04:29:19;13.8;74
79467;SHT30;68933;49.726;9.226;2023-05-07T04:31:32;13.8;74
79467;SHT30;68933;49.726;9.226;2023-05-07T04:33:45;13.8;74
79467;SHT30;68933;49.726;9.226;2023-05-07T04:35:58;13.8;74
79467;SHT30;68933;49.726;9.226;2023-05-07T04:38:11;13.8;74
79467;SHT30;68933;49.726;9.226;2023-05-07T04:40:24;13.8;74
79467;SHT30;68933;49.726;9.226;2023-05-07T04:42:37;13.8;74
79467;SHT30;68933;49.726;9.226;2023-05-07T04:44:52;13.8;74
79467;SHT30;68933;49.726;9.226;2023-05-07T04:47:03;13.8;74
79467;SHT30;68933;49.726;9.226;2023-05-07T04:49:16;13.8;74
79467;SHT30;68933;49.726;9.226;2023-05-07T04:51:29;13.9;74
79467;SHT30;68933;49.726;9.226;2023-05-07T04:53:42;13.9;74
79467;SHT30;68933;49.726;9.226;2023-05-07T04:55:55;13.9;74
79467;SHT30;68933;49.726;9.226;2023-05-07T04:58:08;13.9;74
79467;SHT30;68933;49.726;9.226;2023-05-07T05:00:21;13.9;74
79467;SHT30;68933;49.726;9.226;2023-05-07T05:02:34;13.9;74
79467;SHT30;68933;49.726;9.226;2023-05-07T05:04:47;13.9;74
79467;SHT30;68933;49.726;9.226;2023-05-07T05:07:00;14;74
79467;SHT30;68933;49.726;9.226;2023-05-07T05:09:13;14;74
79467;SHT30;68933;49.726;9.226;2023-05-07T05:11:26;14;74
79467;SHT30;68933;49.726;9.226;2023-05-07T05:13:39;14;74
79467;SHT30;68933;49.726;9.226;2023-05-07T05:15:52;14;74
79467;SHT30;68933;49.726;9.226;2023-05-07T05:18:05;14;74
79467;SHT30;68933;49.726;9.226;2023-05-07T05:20:18;14.1;74
79467;SHT30;68933;49.726;9.226;2023-05-07T05:22:31;14.1;74
79467;SHT30;68933;49.726;9.226;2023-05-07T05:24:44;14.1;74
79467;SHT30;68933;49.726;9.226;2023-05-07T05:26:57;14.2;74
79467;SHT30;68933;49.726;9.226;2023-05-07T05:29:10;14.2;74
79467;SHT30;68933;49.726;9.226;2023-05-07T05:31:23;14.3;74
79467;SHT30;68933;49.726;9.226;2023-05-07T05:33:36;14.3;74
79467;SHT30;68933;49.726;9.226;2023-05-07T05:35:49;14.3;74
79467;SHT30;68933;49.726;9.226;2023-05-07T05:38:02;14.4;73
79467;SHT30;68933;49.726;9.226;2023-05-07T05:40:15;14.4;73
79467;SHT30;68933;49.726;9.226;2023-05-07T05:42:28;14.4;73
79467;SHT30;68933;49.726;9.226;2023-05-07T05:44:41;14.4;73
79467;SHT30;68933;49.726;9.226;2023-05-07T05:46:54;14.4;73
79467;SHT30;68933;49.726;9.226;2023-05-07T05:49:07;14.5;73
79467;SHT30;68933;49.726;9.226;2023-05-07T05:51:20;14.5;73
79467;SHT30;68933;49.726;9.226;2023-05-07T05:53:33;14.6;73
79467;SHT30;68933;49.726;9.226;2023-05-07T05:55:46;14.6;73
79467;SHT30;68933;49.726;9.226;2023-05-07T05:57:59;14.6;73
79467;SHT30;68933;49.726;9.226;2023-05-07T06:00:12;14.8;73
79467;SHT30;68933;49.726;9.226;2023-05-07T06:02:25;14.8;73
79467;SHT30;68933;49.726;9.226;2023-05-07T06:04:38;15;72
79467;SHT30;68933;49.726;9.226;2023-05-07T06:06:51;15;72
79467;SHT30;68933;49.726;9.226;2023-05-07T06:09:04;15;72
79467;SHT30;68933;49.726;9.226;2023-05-07T06:11:17;15.1;72
79467;SHT30;68933;49.726;9.226;2023-05-07T06:13:30;15.1;72
79467;SHT30;68933;49.726;9.226;2023-05-07T06:15:43;15.2;71
79467;SHT30;68933;49.726;9.226;2023-05-07T06:17:56;15.2;71
79467;SHT30;68933;49.726;9.226;2023-05-07T06:20:09;15.3;70
79467;SHT30;68933;49.726;9.226;2023-05-07T06:22:22;15.3;70
79467;SHT30;68933;49.726;9.226;2023-05-07T06:24:35;15.3;70
79467;SHT30;68933;49.726;9.226;2023-05-07T06:26:48;15.5;70
79467;SHT30;68933;49.726;9.226;2023-05-07T06:29:01;15.5;70
79467;SHT30;68933;49.726;9.226;2023-05-07T06:31:15;15.6;70
79467;SHT30;68933;49.726;9.226;2023-05-07T06:33:27;15.6;70
79467;SHT30;68933;49.726;9.226;2023-05-07T06:35:40;15.7;69
79467;SHT30;68933;49.726;9.226;2023-05-07T06:37:53;15.7;69
79467;SHT30;68933;49.726;9.226;2023-05-07T06:40:06;15.7;69
79467;SHT30;68933;49.726;9.226;2023-05-07T06:42:19;15.9;69
79467;SHT30;68933;49.726;9.226;2023-05-07T06:44:32;15.9;69
79467;SHT30;68933;49.726;9.226;2023-05-07T06:46:45;16.1;69
79467;SHT30;68933;49.726;9.226;2023-05-07T06:48:58;16.1;69
79467;SHT30;68933;49.726;9.226;2023-05-07T06:51:11;16.2;69
79467;SHT30;68933;49.726;9.226;2023-05-07T06:53:24;16.2;69
79467;SHT30;68933;49.726;9.226;2023-05-07T06:55:37;16.2;69
79467;SHT30;68933;49.726;9.226;2023-05-07T06:57:50;16.3;67
79467;SHT30;68933;49.726;9.226;2023-05-07T07:00:03;16.3;67
79467;SHT30;68933;49.726;9.226;2023-05-07T07:02:16;16.5;66
79467;SHT30;68933;49.726;9.226;2023-05-07T07:04:29;16.5;66
79467;SHT30;68933;49.726;9.226;2023-05-07T07:06:42;16.7;66
79467;SHT30;68933;49.726;9.226;2023-05-07T07:08:55;16.7;66
79467;SHT30;68933;49.726;9.226;2023-05-07T07:11:08;16.7;66
79467;SHT30;68933;49.726;9.226;2023-05-07T07:13:21;16.9;65
79467;SHT30;68933;49.726;9.226;2023-05-07T07:15:34;16.9;65
79467;SHT30;68933;49.726;9.226;2023-05-07T07:17:47;17;65
79467;SHT30;68933;49.726;9.226;2023-05-07T07:20:00;17;65
79467;SHT30;68933;49.726;9.226;2023-05-07T07:22:13;17;63
79467;SHT30;68933;49.726;9.226;2023-05-07T07:24:26;17;63
79467;SHT30;68933;49.726;9.226;2023-05-07T07:26:39;17;63
79467;SHT30;68933;49.726;9.226;2023-05-07T07:28:52;17.2;63
79467;SHT30;68933;49.726;9.226;2023-05-07T07:31:05;17.2;63
79467;SHT30;68933;49.726;9.226;2023-05-07T07:33:18;17.3;63
79467;SHT30;68933;49.726;9.226;2023-05-07T07:35:31;17.3;63
79467;SHT30;68933;49.726;9.226;2023-05-07T07:37:44;17.4;63
79467;SHT30;68933;49.726;9.226;2023-05-07T07:39:57;17.4;63
79467;SHT30;68933;49.726;9.226;2023-05-07T07:42:10;17.7;62
79467;SHT30;68933;49.726;9.226;2023-05-07T07:44:23;17.7;62
79467;SHT30;68933;49.726;9.226;2023-05-07T07:46:36;17.7;62
79467;SHT30;68933;49.726;9.226;2023-05-07T07:48:49;17.8;62
79467;SHT30;68933;49.726;9.226;2023-05-07T07:51:02;17.8;62
79467;SHT30;68933;49.726;9.226;2023-05-07T07:53:15;17.9;61
79467;SHT30;68933;49.726;9.226;2023-05-07T07:55:28;17.9;61
79467;SHT30;68933;49.726;9.226;2023-05-07T07:57:41;18.1;61
79467;SHT30;68933;49.726;9.226;2023-05-07T07:59:54;18.1;61
79467;SHT30;68933;49.726;9.226;2023-05-07T08:02:07;18.3;61
79467;SHT30;68933;49.726;9.226;2023-05-07T08:04:20;18.3;61
79467;SHT30;68933;49.726;9.226;2023-05-07T08:06:33;18.4;59
79467;SHT30;68933;49.726;9.226;2023-05-07T08:08:46;18.4;59
79467;SHT30;68933;49.726;9.226;2023-05-07T08:10:59;18.4;59
79467;SHT30;68933;49.726;9.226;2023-05-07T08:13:12;18.6;59
79467;SHT30;68933;49.726;9.226;2023-05-07T08:15:25;18.6;59
79467;SHT30;68933;49.726;9.226;2023-05-07T08:17:38;18.7;59
79467;SHT30;68933;49.726;9.226;2023-05-07T08:19:51;18.7;59
79467;SHT30;68933;49.726;9.226;2023-05-07T08:22:04;18.9;59
79467;SHT30;68933;49.726;9.226;2023-05-07T08:24:17;18.9;59
79467;SHT30;68933;49.726;9.226;2023-05-07T08:26:30;19;58
79467;SHT30;68933;49.726;9.226;2023-05-07T08:28:43;19;58
79467;SHT30;68933;49.726;9.226;2023-05-07T08:30:56;19.1;58
79467;SHT30;68933;49.726;9.226;2023-05-07T08:33:09;19.1;58
79467;SHT30;68933;49.726;9.226;2023-05-07T08:35:22;19.1;58
79467;SHT30;68933;49.726;9.226;2023-05-07T08:37:35;19.1;58
79467;SHT30;68933;49.726;9.226;2023-05-07T08:39:48;19.1;58
79467;SHT30;68933;49.726;9.226;2023-05-07T08:42:01;19.1;58
79467;SHT30;68933;49.726;9.226;2023-05-07T08:44:14;19.1;58
79467;SHT30;68933;49.726;9.226;2023-05-07T08:46:27;19.2;58
79467;SHT30;68933;49.726;9.226;2023-05-07T08:48:40;19.2;58
79467;SHT30;68933;49.726;9.226;2023-05-07T08:50:53;19.2;58
79467;SHT30;68933;49.726;9.226;2023-05-07T08:53:06;19.4;58
79467;SHT30;68933;49.726;9.226;2023-05-07T08:55:19;19.4;58
79467;SHT30;68933;49.726;9.226;2023-05-07T08:57:32;19.6;58
79467;SHT30;68933;49.726;9.226;2023-05-07T08:59:45;19.6;58
79467;SHT30;68933;49.726;9.226;2023-05-07T09:01:58;19.6;58
79467;SHT30;68933;49.726;9.226;2023-05-07T09:04:11;19.8;57
79467;SHT30;68933;49.726;9.226;2023-05-07T09:06:24;19.8;57
79467;SHT30;68933;49.726;9.226;2023-05-07T09:08:37;20;57
79467;SHT30;68933;49.726;9.226;2023-05-07T09:10:51;20;57
79467;SHT30;68933;49.726;9.226;2023-05-07T09:13:03;20.2;56
79467;SHT30;68933;49.726;9.226;2023-05-07T09:15:16;20.2;56
79467;SHT30;68933;49.726;9.226;2023-05-07T09:17:29;20.2;56
79467;SHT30;68933;49.726;9.226;2023-05-07T09:19:43;20.5;55
79467;SHT30;68933;49.726;9.226;2023-05-07T09:21:58;20.5;55
79467;SHT30;68933;49.726;9.226;2023-05-07T09:24:08;20.9;54
79467;SHT30;68933;49.726;9.226;2023-05-07T09:26:21;20.9;54
79467;SHT30;68933;49.726;9.226;2023-05-07T09:28:34;21;55
79467;SHT30;68933;49.726;9.226;2023-05-07T09:30:47;21;55
79467;SHT30;68933;49.726;9.226;2023-05-07T09:33:01;21;55
79467;SHT30;68933;49.726;9.226;2023-05-07T09:35:14;21.3;54
79467;SHT30;68933;49.726;9.226;2023-05-07T09:37:26;21.3;54
79467;SHT30;68933;49.726;9.226;2023-05-07T09:39:39;21.6;52
79467;SHT30;68933;49.726;9.226;2023-05-07T09:41:52;21.6;52
79467;SHT30;68933;49.726;9.226;2023-05-07T09:44:05;21.6;52
79467;SHT30;68933;49.726;9.226;2023-05-07T09:46:18;21.7;52
79467;SHT30;68933;49.726;9.226;2023-05-07T09:48:31;21.7;52
79467;SHT30;68933;49.726;9.226;2023-05-07T09:50:46;22.1;52
79467;SHT30;68933;49.726;9.226;2023-05-07T09:52:57;22.1;52
79467;SHT30;68933;49.726;9.226;2023-05-07T09:55:10;22.6;51
79467;SHT30;68933;49.726;9.226;2023-05-07T09:57:23;22.6;51
79467;SHT30;68933;49.726;9.226;2023-05-07T09:59:36;22.6;51
79467;SHT30;68933;49.726;9.226;2023-05-07T10:01:49;22.8;51
79467;SHT30;68933;49.726;9.226;2023-05-07T10:04:02;22.8;51
79467;SHT30;68933;49.726;9.226;2023-05-07T10:06:15;23.1;51
79467;SHT30;68933;49.726;9.226;2023-05-07T10:08:28;23.1;51
79467;SHT30;68933;49.726;9.226;2023-05-07T10:10:41;23.4;50
79467;SHT30;68933;49.726;9.226;2023-05-07T10:12:54;23.4;50
79467;SHT30;68933;49.726;9.226;2023-05-07T10:15:07;23.6;50
79467;SHT30;68933;49.726;9.226;2023-05-07T10:17:20;23.6;50
79467;SHT30;68933;49.726;9.226;2023-05-07T10:19:33;23.6;50
79467;SHT30;68933;49.726;9.226;2023-05-07T10:21:48;23.9;48
79467;SHT30;68933;49.726;9.226;2023-05-07T10:23:59;23.9;48
79467;SHT30;68933;49.726;9.226;2023-05-07T10:26:12;23.9;48
79467;SHT30;68933;49.726;9.226;2023-05-07T10:28:25;23.9;48
79467;SHT30;68933;49.726;9.226;2023-05-07T10:30:40;24;48
79467;SHT30;68933;49.726;9.226;2023-05-07T10:32:53;24;48
79467;SHT30;68933;49.726;9.226;2023-05-07T10:35:06;24;48
79467;SHT30;68933;49.726;9.226;2023-05-07T10:37:17;24.3;47
79467;SHT30;68933;49.726;9.226;2023-05-07T10:39:30;24.3;47
79467;SHT30;68933;49.726;9.226;2023-05-07T10:41:43;24.4;47
79467;SHT30;68933;49.726;9.226;2023-05-07T10:43:56;24.4;47
79467;SHT30;68933;49.726;9.226;2023-05-07T10:46:09;24.4;47
79467;SHT30;68933;49.726;9.226;2023-05-07T10:48:23;24.4;47
79467;SHT30;68933;49.726;9.226;2023-05-07T10:50:35;24.5;47
79467;SHT30;68933;49.726;9.226;2023-05-07T10:53:14;24.5;47
79467;SHT30;68933;49.726;9.226;2023-05-07T10:55:18;24.5;47
79467;SHT30;68933;49.726;9.226;2023-05-07T10:57:45;24.8;46
79467;SHT30;68933;49.726;9.226;2023-05-07T10:59:31;24.8;46
79467;SHT30;68933;49.726;9.226;2023-05-07T11:01:49;24.9;46
79467;SHT30;68933;49.726;9.226;2023-05-07T11:04:25;24.9;46
79467;SHT30;68933;49.726;9.226;2023-05-07T11:06:10;25.2;46
79467;SHT30;68933;49.726;9.226;2023-05-07T11:08:19;25.2;46
79467;SHT30;68933;49.726;9.226;2023-05-07T11:10:48;25.5;44
79467;SHT30;68933;49.726;9.226;2023-05-07T11:12:49;25.5;44
79467;SHT30;68933;49.726;9.226;2023-05-07T11:14:58;25.6;44
79467;SHT30;68933;49.726;9.226;2023-05-07T11:17:11;25.6;44
79467;SHT30;68933;49.726;9.226;2023-05-07T11:19:47;25.6;44
79467;SHT30;68933;49.726;9.226;2023-05-07T11:21:37;25.9;43
79467;SHT30;68933;49.726;9.226;2023-05-07T11:23:59;25.9;43
79467;SHT30;68933;49.726;9.226;2023-05-07T11:26:04;26;43
79467;SHT30;68933;49.726;9.226;2023-05-07T11:28:16;26;43
79467;SHT30;68933;49.726;9.226;2023-05-07T11:30:29;26.4;43
79467;SHT30;68933;49.726;9.226;2023-05-07T11:32:42;26.4;43
79467;SHT30;68933;49.726;9.226;2023-05-07T11:34:56;26.8;42
79467;SHT30;68933;49.726;9.226;2023-05-07T11:37:08;26.8;42
79467;SHT30;68933;49.726;9.226;2023-05-07T11:39:23;26.8;42
79467;SHT30;68933;49.726;9.226;2023-05-07T11:41:34;26.8;42
79467;SHT30;68933;49.726;9.226;2023-05-07T11:43:55;26.8;42
79467;SHT30;68933;49.726;9.226;2023-05-07T11:46:08;26.8;42
79467;SHT30;68933;49.726;9.226;2023-05-07T11:48:14;26.8;42
79467;SHT30;68933;49.726;9.226;2023-05-07T11:50:26;26.8;42
79467;SHT30;68933;49.726;9.226;2023-05-07T11:52:39;27.1;42
79467;SHT30;68933;49.726;9.226;2023-05-07T11:54:53;27.1;42
79467;SHT30;68933;49.726;9.226;2023-05-07T11:57:05;27.1;40
79467;SHT30;68933;49.726;9.226;2023-05-07T11:59:18;27.1;40
79467;SHT30;68933;49.726;9.226;2023-05-07T12:01:31;27.1;40
79467;SHT30;68933;49.726;9.226;2023-05-07T12:03:44;27.1;40
79467;SHT30;68933;49.726;9.226;2023-05-07T12:05:57;27.1;40
79467;SHT30;68933;49.726;9.226;2023-05-07T12:08:13;27.3;42
79467;SHT30;68933;49.726;9.226;2023-05-07T12:10:23;27.3;42
79467;SHT30;68933;49.726;9.226;2023-05-07T12:12:39;27.6;40
79467;SHT30;68933;49.726;9.226;2023-05-07T12:14:49;27.6;40
79467;SHT30;68933;49.726;9.226;2023-05-07T12:17:02;27.6;40
79467;SHT30;68933;49.726;9.226;2023-05-07T12:19:15;27.8;39
79467;SHT30;68933;49.726;9.226;2023-05-07T12:21:28;27.8;39
79467;SHT30;68933;49.726;9.226;2023-05-07T12:23:41;28;39
79467;SHT30;68933;49.726;9.226;2023-05-07T12:25:54;28;39
79467;SHT30;68933;49.726;9.226;2023-05-07T12:28:07;28.3;40
79467;SHT30;68933;49.726;9.226;2023-05-07T12:30:20;28.3;40
79467;SHT30;68933;49.726;9.226;2023-05-07T12:32:33;28.5;38
79467;SHT30;68933;49.726;9.226;2023-05-07T12:34:46;28.5;38
79467;SHT30;68933;49.726;9.226;2023-05-07T12:37:01;28.5;38
79467;SHT30;68933;49.726;9.226;2023-05-07T12:39:12;28.4;38
79467;SHT30;68933;49.726;9.226;2023-05-07T12:41:25;28.4;38
79467;SHT30;68933;49.726;9.226;2023-05-07T12:43:38;28.7;38
79467;SHT30;68933;49.726;9.226;2023-05-07T12:45:53;28.7;38
79467;SHT30;68933;49.726;9.226;2023-05-07T12:48:04;29.1;38
79467;SHT30;68933;49.726;9.226;2023-05-07T12:50:17;29.1;38
79467;SHT30;68933;49.726;9.226;2023-05-07T12:52:30;29.2;38
79467;SHT30;68933;49.726;9.226;2023-05-07T12:54:43;29.2;38
79467;SHT30;68933;49.726;9.226;2023-05-07T12:57:00;29.1;36
79467;SHT30;68933;49.726;9.226;2023-05-07T12:59:09;29.1;36
79467;SHT30;68933;49.726;9.226;2023-05-07T13:01:22;29.1;36
79467;SHT30;68933;49.726;9.226;2023-05-07T13:03:36;29.2;38
79467;SHT30;68933;49.726;9.226;2023-05-07T13:05:48;29.2;38
79467;SHT30;68933;49.726;9.226;2023-05-07T13:08:01;29.5;38
79467;SHT30;68933;49.726;9.226;2023-05-07T13:10:14;29.5;38
79467;SHT30;68933;49.726;9.226;2023-05-07T13:12:27;29.5;36
79467;SHT30;68933;49.726;9.226;2023-05-07T13:14:40;29.5;36
79467;SHT30;68933;49.726;9.226;2023-05-07T13:16:53;29.5;36
79467;SHT30;68933;49.726;9.226;2023-05-07T13:19:06;29.5;36
79467;SHT30;68933;49.726;9.226;2023-05-07T13:21:19;29.5;36
79467;SHT30;68933;49.726;9.226;2023-05-07T13:23:32;29.4;36
79467;SHT30;68933;49.726;9.226;2023-05-07T13:25:45;29.4;36
79467;SHT30;68933;49.726;9.226;2023-05-07T13:27:58;29.3;35
79467;SHT30;68933;49.726;9.226;2023-05-07T13:30:11;29.3;35
79467;SHT30;68933;49.726;9.226;2023-05-07T13:32:24;29.1;36
79467;SHT30;68933;49.726;9.226;2023-05-07T13:34:37;29.1;36
79467;SHT30;68933;49.726;9.226;2023-05-07T13:36:50;29.2;36
79467;SHT30;68933;49.726;9.226;2023-05-07T13:39:03;29.2;36
79467;SHT30;68933;49.726;9.226;2023-05-07T13:41:16;29.3;36
79467;SHT30;68933;49.726;9.226;2023-05-07T13:43:29;29.3;36
79467;SHT30;68933;49.726;9.226;2023-05-07T13:45:42;29.1;35
79467;SHT30;68933;49.726;9.226;2023-05-07T13:47:55;29.1;35
79467;SHT30;68933;49.726;9.226;2023-05-07T13:50:08;29.1;35
79467;SHT30;68933;49.726;9.226;2023-05-07T13:52:21;29.1;35
79467;SHT30;68933;49.726;9.226;2023-05-07T13:54:34;29.1;35
79467;SHT30;68933;49.726;9.226;2023-05-07T13:56:47;28.9;35
79467;SHT30;68933;49.726;9.226;2023-05-07T13:59:00;28.9;35
79467;SHT30;68933;49.726;9.226;2023-05-07T14:01:13;28.9;35
79467;SHT30;68933;49.726;9.226;2023-05-07T14:03:26;28.7;35
79467;SHT30;68933;49.726;9.226;2023-05-07T14:05:39;28.7;35
79467;SHT30;68933;49.726;9.226;2023-05-07T14:07:52;28.4;35
79467;SHT30;68933;49.726;9.226;2023-05-07T14:10:05;28.4;35
79467;SHT30;68933;49.726;9.226;2023-05-07T14:12:18;28.4;35
79467;SHT30;68933;49.726;9.226;2023-05-07T14:14:31;28.1;35
79467;SHT30;68933;49.726;9.226;2023-05-07T14:16:44;28.1;35
79467;SHT30;68933;49.726;9.226;2023-05-07T14:18:57;27.9;35
79467;SHT30;68933;49.726;9.226;2023-05-07T14:21:10;27.9;35
79467;SHT30;68933;49.726;9.226;2023-05-07T14:23:23;27.9;35
79467;SHT30;68933;49.726;9.226;2023-05-07T14:25:36;27.6;37
79467;SHT30;68933;49.726;9.226;2023-05-07T14:27:49;27.6;37
79467;SHT30;68933;49.726;9.226;2023-05-07T14:30:02;27.2;38
79467;SHT30;68933;49.726;9.226;2023-05-07T14:32:15;27.2;38
79467;SHT30;68933;49.726;9.226;2023-05-07T14:34:28;27.2;38
79467;SHT30;68933;49.726;9.226;2023-05-07T14:36:41;27;38
79467;SHT30;68933;49.726;9.226;2023-05-07T14:38:54;27;38
79467;SHT30;68933;49.726;9.226;2023-05-07T14:41:07;26.7;38
79467;SHT30;68933;49.726;9.226;2023-05-07T14:43:20;26.7;38
79467;SHT30;68933;49.726;9.226;2023-05-07T14:45:33;26.5;39
79467;SHT30;68933;49.726;9.226;2023-05-07T14:47:46;26.5;39
79467;SHT30;68933;49.726;9.226;2023-05-07T14:49:59;26.5;39
79467;SHT30;68933;49.726;9.226;2023-05-07T14:52:12;26.3;39
79467;SHT30;68933;49.726;9.226;2023-05-07T14:54:25;26.3;39
79467;SHT30;68933;49.726;9.226;2023-05-07T14:56:38;26.1;39
79467;SHT30;68933;49.726;9.226;2023-05-07T14:58:51;26.1;39
79467;SHT30;68933;49.726;9.226;2023-05-07T15:01:04;25.9;40